Time;durP1;ratioP1;P1;durP2;ratioP2;P2;SDS_P1;SDS_P2;PMS_P1;PMS_P2;Temp;Humidity;BMP_temperature;BMP_pressure;BME280_temperature;BME280_humidity;BME280_pressure;Samples;Min_cycle;Max_cycle;Signal;HPM_P1;HPM_P2
2021/05/19 00:01:41;;;;;;;40.93;30.10;;;10.50;87.90;;;;;;4971345;28;20217;-88
2021/05/19 00:04:08;;;;;;;42.13;29.90;;;10.60;85.60;;;;;;4971209;28;20445;-88
2021/05/19 00:06:34;;;;;;;40.17;30.23;;;9.50;85.40;;;;;;4988971;28;20184;-88
2021/05/19 00:09:00;;;;;;;36.88;27.50;;;9.70;85.80;;;;;;4988279;28;20202;-88
2021/05/19 00:11:26;;;;;;;28.37;23.30;;;9.80;86.30;;;;;;4970854;28;20196;-89
2021/05/19 00:13:52;;;;;;;30.40;25.50;;;9.70;86.00;;;;;;4983678;28;20201;-87
2021/05/19 00:16:18;;;;;;;31.63;27.33;;;9.00;83.80;;;;;;4968288;28;20421;-89
2021/05/19 00:18:44;;;;;;;34.67;28.38;;;9.90;83.80;;;;;;4985821;28;20174;-88
2021/05/19 00:21:10;;;;;;;33.87;24.40;;;8.00;83.20;;;;;;4982741;28;20240;-88
2021/05/19 00:23:37;;;;;;;30.65;26.38;;;8.80;85.30;;;;;;4983831;28;20182;-88
2021/05/19 00:26:04;;;;;;;32.83;27.40;;;8.70;84.00;;;;;;4966891;28;20201;-88
2021/05/19 00:28:30;;;;;;;39.17;29.10;;;9.20;84.20;;;;;;4983294;28;20230;-88
2021/05/19 00:30:59;;;;;;;36.58;28.42;;;8.70;83.30;;;;;;4967262;28;20178;-88
2021/05/19 00:33:25;;;;;;;38.70;29.20;;;8.20;84.00;;;;;;4966436;28;20224;-88
2021/05/19 00:35:51;;;;;;;35.43;28.70;;;8.10;84.20;;;;;;4983781;28;20178;-88
2021/05/19 00:38:20;;;;;;;39.05;27.00;;;8.50;85.60;;;;;;4965093;28;20425;-88
2021/05/19 00:40:49;;;;;;;38.67;27.60;;;8.40;84.60;;;;;;4964400;28;20234;-88
2021/05/19 00:43:15;;;;;;;32.25;27.25;;;8.60;83.80;;;;;;4967545;28;20205;-90
2021/05/19 00:45:41;;;;;;;29.53;25.27;;;8.60;83.60;;;;;;4987014;28;20171;-88
2021/05/19 00:48:09;;;;;;;30.43;25.20;;;10.40;87.40;;;;;;4967539;28;20480;-88
2021/05/19 00:50:36;;;;;;;37.78;30.42;;;9.90;87.10;;;;;;4985422;28;20428;-89
2021/05/19 00:53:02;;;;;;;32.17;26.40;;;9.40;87.00;;;;;;4968007;28;20249;-89
2021/05/19 00:55:28;;;;;;;31.73;26.40;;;9.90;88.50;;;;;;4965685;28;20209;-89
2021/05/19 00:57:55;;;;;;;32.50;24.40;;;9.60;86.00;;;;;;4965764;28;20468;-89
2021/05/19 01:00:24;;;;;;;26.00;21.05;;;8.60;82.60;;;;;;4965051;28;20178;-89
2021/05/19 01:02:51;;;;;;;32.75;26.42;;;8.60;82.20;;;;;;4984313;28;20174;-89
2021/05/19 01:05:25;;;;;;;30.40;26.13;;;8.60;82.90;;;;;;4983724;28;20217;-88
2021/05/19 01:10:35;;;;;;;35.60;29.25;;;8.30;82.80;;;;;;4983773;28;20180;-89
2021/05/19 01:13:01;;;;;;;30.87;26.77;;;8.70;83.30;;;;;;4984044;28;20177;-88
2021/05/19 01:15:27;;;;;;;35.77;28.90;;;8.60;83.90;;;;;;4967263;28;20180;-88
2021/05/19 01:17:53;;;;;;;35.07;28.50;;;9.00;85.90;;;;;;4965572;28;20194;-88
2021/05/19 01:20:19;;;;;;;41.53;29.75;;;10.10;85.20;;;;;;4983351;28;20613;-88
2021/05/19 01:22:46;;;;;;;36.70;28.73;;;9.20;87.60;;;;;;4967422;28;20229;-89
2021/05/19 01:25:12;;;;;;;38.65;28.88;;;9.70;87.50;;;;;;4966953;28;20186;-89
2021/05/19 01:27:38;;;;;;;43.90;30.30;;;8.00;86.30;;;;;;4968535;28;20281;-88
2021/05/19 01:30:07;;;;;;;48.30;33.53;;;8.30;87.20;;;;;;4966644;28;20425;-88
2021/05/19 01:32:33;;;;;;;42.25;31.60;;;7.10;84.00;;;;;;4966203;28;20174;-89
2021/05/19 01:34:59;;;;;;;42.20;30.58;;;9.40;88.20;;;;;;4967953;28;20178;-89
2021/05/19 01:37:25;;;;;;;39.47;29.07;;;8.70;88.30;;;;;;4970029;28;20177;-89
2021/05/19 01:39:51;;;;;;;42.63;31.40;;;9.60;88.80;;;;;;4970722;28;20166;-89
2021/05/19 01:42:17;;;;;;;48.13;34.30;;;9.60;89.10;;;;;;4974125;28;20213;-88
2021/05/19 01:44:43;;;;;;;43.03;28.37;;;9.60;88.20;;;;;;4971608;28;20193;-88
2021/05/19 01:47:09;;;;;;;45.60;32.85;;;8.40;86.40;;;;;;4972895;28;20493;-88
2021/05/19 01:49:43;;;;;;;44.67;33.40;;;8.30;86.60;;;;;;4972648;28;20186;-88
2021/05/19 01:52:11;;;;;;;39.15;30.08;;;8.20;86.20;;;;;;4976880;28;20421;-88
2021/05/19 01:54:42;;;;;;;37.70;28.98;;;8.70;86.90;;;;;;4975424;28;20185;-89
2021/05/19 01:57:09;;;;;;;37.25;28.90;;;9.40;87.20;;;;;;4989889;28;20189;-89
2021/05/19 01:59:35;;;;;;;38.08;29.95;;;7.80;84.60;;;;;;4989384;28;20186;-88
2021/05/19 02:02:00;;;;;;;38.97;29.45;;;9.50;86.20;;;;;;4987460;28;20606;-88
2021/05/19 02:04:26;;;;;;;40.87;27.70;;;9.40;86.70;;;;;;4964609;28;20205;-89
2021/05/19 02:06:57;;;;;;;42.70;31.70;;;8.50;83.60;;;;;;4984399;28;20244;-89
2021/05/19 02:09:25;;;;;;;39.55;29.80;;;9.00;84.40;;;;;;4983645;28;20205;-88
2021/05/19 02:11:51;;;;;;;41.35;31.25;;;8.10;83.60;;;;;;4985272;28;20190;-89
2021/05/19 02:14:18;;;;;;;40.40;30.58;;;10.00;84.90;;;;;;4982699;28;20256;-89
2021/05/19 02:16:44;;;;;;;44.58;31.27;;;9.30;85.60;;;;;;4963661;28;20186;-88
2021/05/19 02:19:12;;;;;;;44.08;31.77;;;8.60;86.70;;;;;;4981425;28;20170;-88
2021/05/19 02:21:41;;;;;;;47.95;32.92;;;8.40;87.10;;;;;;4962770;28;20273;-89
2021/05/19 02:24:09;;;;;;;42.63;31.25;;;8.40;86.40;;;;;;4966967;28;20170;-88
2021/05/19 02:26:35;;;;;;;41.17;29.83;;;8.40;86.20;;;;;;4973628;28;20189;-87
2021/05/19 02:29:00;;;;;;;40.13;28.80;;;9.10;87.40;;;;;;4988306;28;20477;-88
2021/05/19 02:31:26;;;;;;;41.43;29.93;;;8.50;84.90;;;;;;4965094;28;20240;-89
2021/05/19 02:33:51;;;;;;;43.87;33.07;;;8.50;84.60;;;;;;4971978;28;20181;-88
2021/05/19 02:36:17;;;;;;;44.80;31.40;;;8.40;84.90;;;;;;4970859;28;20241;-88
2021/05/19 02:38:42;;;;;;;42.97;30.67;;;8.40;85.30;;;;;;4965344;28;20539;-89
2021/05/19 02:41:08;;;;;;;45.43;30.80;;;8.30;86.20;;;;;;4962563;28;20200;-88
2021/05/19 02:43:34;;;;;;;50.73;34.50;;;8.20;85.50;;;;;;4981278;28;20177;-88
2021/05/19 02:45:59;;;;;;;50.67;33.50;;;8.10;86.70;;;;;;4963212;28;20601;-89
2021/05/19 02:48:25;;;;;;;57.70;37.00;;;9.70;88.30;;;;;;4980313;28;20214;-88
2021/05/19 02:50:51;;;;;;;62.70;40.00;;;7.80;86.40;;;;;;4961751;28;20170;-88
2021/05/19 02:53:16;;;;;;;57.30;37.30;;;7.30;86.00;;;;;;4981355;28;20177;-89
2021/05/19 02:55:42;;;;;;;53.13;36.57;;;7.80;86.70;;;;;;4984390;28;20189;-89
2021/05/19 02:58:07;;;;;;;62.00;34.63;;;7.90;86.80;;;;;;4979574;28;20189;-88
2021/05/19 03:00:33;;;;;;;55.20;36.30;;;7.90;87.30;;;;;;4966144;28;20238;-87
2021/05/19 03:02:59;;;;;;;56.60;35.70;;;7.90;87.30;;;;;;4987831;28;20200;-88
2021/05/19 03:05:25;;;;;;;54.07;35.87;;;7.80;86.00;;;;;;4988589;28;20182;-88
2021/05/19 03:07:50;;;;;;;57.77;37.33;;;8.10;86.70;;;;;;4986227;28;20263;-88
2021/05/19 03:10:16;;;;;;;59.17;37.77;;;7.90;86.60;;;;;;4988875;28;20170;-87
2021/05/19 03:12:42;;;;;;;59.20;36.87;;;8.00;87.00;;;;;;4970448;28;20182;-88
2021/05/19 03:15:09;;;;;;;57.53;36.45;;;8.00;87.20;;;;;;4984437;28;20410;-88
2021/05/19 03:17:35;;;;;;;60.50;36.15;;;8.00;86.80;;;;;;4967746;28;20245;-88
2021/05/19 03:20:00;;;;;;;54.97;35.87;;;7.50;87.30;;;;;;4967258;28;20181;-87
2021/05/19 03:22:26;;;;;;;52.63;36.07;;;8.00;87.70;;;;;;4985796;28;20825;-88
2021/05/19 03:24:51;;;;;;;47.00;33.40;;;8.00;86.80;;;;;;4982301;28;20185;-87
2021/05/19 03:27:17;;;;;;;43.13;31.43;;;8.20;87.70;;;;;;4983669;28;20202;-88
2021/05/19 03:29:43;;;;;;;38.40;28.33;;;9.50;88.20;;;;;;4967168;28;20226;-88
2021/05/19 03:32:10;;;;;;;39.97;27.03;;;9.10;86.50;;;;;;4968815;28;20417;-88
2021/05/19 03:34:35;;;;;;;38.95;28.98;;;8.30;85.70;;;;;;4971475;28;20181;-89
2021/05/19 03:37:01;;;;;;;36.30;27.70;;;8.20;86.30;;;;;;4986360;28;20178;-89
2021/05/19 03:39:26;;;;;;;38.40;29.10;;;7.50;85.50;;;;;;4968585;28;20178;-89
2021/05/19 03:41:52;;;;;;;41.30;30.17;;;8.10;85.80;;;;;;4985145;28;20170;-89
2021/05/19 03:44:18;;;;;;;47.30;30.10;;;8.30;87.70;;;;;;4985089;28;20178;-87
2021/05/19 03:46:44;;;;;;;38.77;30.23;;;7.50;85.70;;;;;;4964730;28;20540;-88
2021/05/19 03:49:09;;;;;;;40.90;29.70;;;8.50;87.20;;;;;;4983418;28;20700;-90
2021/05/19 03:51:36;;;;;;;40.17;29.40;;;8.20;85.90;;;;;;4983497;28;20227;-86
2021/05/19 03:54:03;;;;;;;38.70;30.08;;;9.60;87.40;;;;;;4982336;28;20694;-87
2021/05/19 03:56:29;;;;;;;40.78;29.48;;;8.50;86.00;;;;;;4982220;28;20170;-88
2021/05/19 03:58:55;;;;;;;41.47;31.40;;;10.60;87.90;;;;;;4966913;28;20200;-89
2021/05/19 04:01:21;;;;;;;44.40;32.03;;;8.70;87.30;;;;;;4967698;28;20483;-89
2021/05/19 04:03:48;;;;;;;44.83;30.70;;;9.40;88.70;;;;;;4978067;28;20189;-88
2021/05/19 04:06:14;;;;;;;39.60;30.45;;;8.10;86.90;;;;;;4980834;28;20186;-89
2021/05/19 04:08:41;;;;;;;44.73;33.40;;;8.30;87.40;;;;;;4978657;28;20224;-89
2021/05/19 04:11:08;;;;;;;39.13;30.08;;;8.40;87.50;;;;;;4977835;28;20174;-87
2021/05/19 04:13:34;;;;;;;36.10;28.70;;;10.30;89.00;;;;;;4988556;28;20185;-89
2021/05/19 04:16:00;;;;;;;36.03;29.40;;;9.30;89.30;;;;;;4983737;28;20681;-88
2021/05/19 04:18:25;;;;;;;39.97;29.40;;;10.10;88.30;;;;;;4983797;28;20176;-88
2021/05/19 04:20:52;;;;;;;40.00;30.17;;;8.00;87.00;;;;;;4983683;28;20884;-88
2021/05/19 04:23:18;;;;;;;38.08;28.98;;;9.00;88.10;;;;;;4966567;28;20177;-87
2021/05/19 04:25:44;;;;;;;33.70;27.80;;;8.80;87.30;;;;;;4966055;28;20181;-89
2021/05/19 04:28:10;;;;;;;38.00;28.55;;;10.50;87.60;;;;;;4964605;28;20236;-88
2021/05/19 04:30:37;;;;;;;35.75;27.83;;;8.90;86.70;;;;;;4982260;28;20174;-89
2021/05/19 04:33:04;;;;;;;37.25;27.88;;;9.00;86.40;;;;;;4982494;28;20178;-89
2021/05/19 04:35:30;;;;;;;35.45;29.30;;;9.10;86.40;;;;;;4980709;28;20178;-88
2021/05/19 04:37:56;;;;;;;34.58;28.00;;;9.10;86.00;;;;;;4963718;28;20293;-89
2021/05/19 04:40:21;;;;;;;38.30;28.43;;;9.20;86.40;;;;;;4961315;28;20218;-87
2021/05/19 04:42:48;;;;;;;33.53;26.80;;;9.30;86.60;;;;;;4960868;28;20473;-88
2021/05/19 04:45:14;;;;;;;31.60;27.92;;;9.40;86.60;;;;;;4978543;28;20228;-87
2021/05/19 04:47:40;;;;;;;28.02;24.98;;;9.60;86.00;;;;;;4978763;28;20198;-88
2021/05/19 04:50:08;;;;;;;28.20;24.63;;;11.00;84.80;;;;;;4961049;28;20189;-88
2021/05/19 04:52:33;;;;;;;27.10;23.93;;;10.00;81.50;;;;;;4980489;28;20461;-87
2021/05/19 04:55:01;;;;;;;24.47;21.93;;;10.10;81.00;;;;;;4981135;28;20481;-88
2021/05/19 04:57:27;;;;;;;27.10;22.90;;;10.20;80.10;;;;;;4965727;28;20178;-89
2021/05/19 04:59:53;;;;;;;25.95;22.75;;;11.50;80.90;;;;;;4969498;28;20437;-89
2021/05/19 05:02:31;;;;;;;23.98;21.33;;;10.90;79.70;;;;;;4717437;28;10000972;-88
2021/05/19 05:04:57;;;;;;;23.33;19.70;;;10.30;80.50;;;;;;4963732;28;20386;-87
2021/05/19 05:07:23;;;;;;;23.50;21.07;;;10.30;80.60;;;;;;4978989;28;20543;-88
2021/05/19 05:09:49;;;;;;;21.83;19.50;;;12.10;83.30;;;;;;4979074;28;20177;-87
2021/05/19 05:12:15;;;;;;;20.50;18.50;;;12.20;80.60;;;;;;4962540;28;20177;-88
2021/05/19 05:14:41;;;;;;;21.38;19.33;;;11.40;77.90;;;;;;4981073;28;20181;-87
2021/05/19 05:17:07;;;;;;;18.17;16.47;;;12.00;75.50;;;;;;4981219;28;20192;-87
2021/05/19 05:19:35;;;;;;;19.03;17.37;;;11.90;75.60;;;;;;4964876;28;20429;-88
2021/05/19 05:22:01;;;;;;;19.07;17.50;;;12.90;74.90;;;;;;4965516;28;20781;-88
2021/05/19 05:24:27;;;;;;;18.07;16.43;;;14.00;74.60;;;;;;4965919;28;20433;-87
2021/05/19 05:26:54;;;;;;;18.27;16.80;;;14.10;72.80;;;;;;4967285;28;20170;-88
2021/05/19 05:29:20;;;;;;;16.67;15.17;;;13.30;71.90;;;;;;4964453;28;20501;-89
2021/05/19 05:31:45;;;;;;;17.67;16.27;;;13.80;67.60;;;;;;4970829;28;20441;-88
2021/05/19 05:34:11;;;;;;;15.67;14.33;;;14.90;66.70;;;;;;4980635;28;20257;-88
2021/05/19 05:36:37;;;;;;;17.17;15.80;;;15.70;65.60;;;;;;4968059;28;20193;-87
2021/05/19 05:39:07;;;;;;;18.00;16.40;;;14.20;64.10;;;;;;4975731;28;20230;-89
2021/05/19 05:41:33;;;;;;;17.30;16.00;;;14.00;63.20;;;;;;4968244;28;20193;-89
2021/05/19 05:43:58;;;;;;;15.63;14.23;;;15.20;64.10;;;;;;4985963;28;20980;-88
2021/05/19 05:46:24;;;;;;;15.37;14.07;;;13.70;63.60;;;;;;4967283;28;20266;-89
2021/05/19 05:48:50;;;;;;;17.50;15.90;;;14.20;66.20;;;;;;4970786;28;20473;-87
2021/05/19 05:51:15;;;;;;;16.87;15.47;;;15.00;66.80;;;;;;4971930;28;20182;-88
2021/05/19 05:53:42;;;;;;;17.30;15.67;;;12.80;67.40;;;;;;4988339;28;20233;-87
2021/05/19 05:56:11;;;;;;;16.27;14.87;;;12.80;68.40;;;;;;4987004;28;20249;-88
2021/05/19 05:58:38;;;;;;;14.30;13.00;;;12.90;67.80;;;;;;4965742;28;20452;-88
2021/05/19 06:01:03;;;;;;;13.73;12.60;;;14.80;68.10;;;;;;4968258;28;20452;-89
2021/05/19 06:03:32;;;;;;;13.00;12.00;;;15.10;63.30;;;;;;4967352;28;20485;-90
2021/05/19 06:05:59;;;;;;;13.60;12.50;;;12.70;57.80;;;;;;4982922;28;20432;-90
2021/05/19 06:08:25;;;;;;;12.37;11.37;;;14.90;59.00;;;;;;4985179;28;20481;-87
2021/05/19 06:10:51;;;;;;;14.40;13.13;;;14.70;59.60;;;;;;4967180;28;20915;-89
2021/05/19 06:13:17;;;;;;;14.37;13.37;;;14.90;61.20;;;;;;4970266;28;20184;-89
2021/05/19 06:15:42;;;;;;;15.70;14.33;;;16.40;64.50;;;;;;4986599;28;20503;-89
2021/05/19 06:18:08;;;;;;;14.20;12.73;;;14.10;60.00;;;;;;4985435;28;20481;-89
2021/05/19 06:20:34;;;;;;;14.60;12.57;;;12.70;60.10;;;;;;4966049;28;20181;-87
2021/05/19 06:23:00;;;;;;;15.30;14.00;;;15.10;63.00;;;;;;4986381;28;20174;-89
2021/05/19 06:25:26;;;;;;;15.80;14.40;;;13.70;64.20;;;;;;4984642;28;20436;-89
2021/05/19 06:27:52;;;;;;;13.23;12.23;;;13.20;64.40;;;;;;4982335;28;20956;-89
2021/05/19 06:30:19;;;;;;;16.57;12.83;;;13.30;65.90;;;;;;4952796;29;20498;-89
2021/05/19 06:32:45;;;;;;;13.00;11.80;;;13.30;63.60;;;;;;4964416;29;20166;-89
2021/05/19 06:35:11;;;;;;;16.10;12.90;;;14.00;65.60;;;;;;4968238;28;20428;-86
2021/05/19 06:37:36;;;;;;;18.27;14.90;;;13.10;64.40;;;;;;4985233;28;20201;-89
2021/05/19 06:40:06;;;;;;;16.30;14.57;;;14.70;68.50;;;;;;4961714;28;20959;-87
2021/05/19 06:42:32;;;;;;;15.10;13.67;;;13.00;65.50;;;;;;4969549;29;20214;-90
2021/05/19 06:44:58;;;;;;;13.97;12.67;;;13.10;64.80;;;;;;4964242;29;20430;-88
2021/05/19 06:47:24;;;;;;;13.67;12.30;;;13.80;67.70;;;;;;4965968;28;20468;-87
2021/05/19 06:49:52;;;;;;;16.40;14.80;;;14.90;66.60;;;;;;4967781;28;20247;-89
2021/05/19 06:52:17;;;;;;;13.07;11.83;;;12.60;64.60;;;;;;4963454;28;20583;-89
2021/05/19 06:54:45;;;;;;;13.80;12.40;;;14.10;66.60;;;;;;4965803;28;20480;-87
2021/05/19 06:57:11;;;;;;;12.43;11.43;;;13.30;65.00;;;;;;4965637;28;20176;-89
2021/05/19 06:59:37;;;;;;;13.80;12.60;;;13.10;66.00;;;;;;4965604;28;20425;-89
2021/05/19 07:02:03;;;;;;;12.20;10.90;;;14.60;66.70;;;;;;4985276;28;20177;-89
2021/05/19 07:04:29;;;;;;;10.73;9.93;;;14.90;64.70;;;;;;4982418;28;20430;-91
2021/05/19 07:06:54;;;;;;;11.77;10.57;;;15.70;60.20;;;;;;4968754;28;20166;-90
2021/05/19 07:09:20;;;;;;;13.07;11.57;;;16.60;58.30;;;;;;4968791;28;20213;-88
2021/05/19 07:11:46;;;;;;;10.23;9.43;;;15.40;57.50;;;;;;4970718;28;20201;-89
2021/05/19 07:14:16;;;;;;;10.53;9.63;;;15.50;56.20;;;;;;4969761;28;20476;-89
2021/05/19 07:16:51;;;;;;;10.10;9.30;;;16.20;57.20;;;;;;4970808;28;20197;-87
2021/05/19 07:19:17;;;;;;;11.70;10.60;;;16.40;57.40;;;;;;4955584;28;20424;-88
2021/05/19 07:21:43;;;;;;;10.30;9.50;;;16.90;58.00;;;;;;4987779;28;20493;-88
2021/05/19 07:24:11;;;;;;;13.97;9.20;;;15.90;57.80;;;;;;4969386;28;20421;-89
2021/05/19 07:26:38;;;;;;;8.40;7.60;;;16.30;60.40;;;;;;4970926;28;20966;-89
2021/05/19 07:29:04;;;;;;;8.90;7.90;;;15.60;58.50;;;;;;4971652;28;20492;-88
2021/05/19 07:31:30;;;;;;;7.10;6.50;;;15.60;57.30;;;;;;4988220;28;20851;-87
2021/05/19 07:33:58;;;;;;;7.73;6.97;;;17.30;53.50;;;;;;4987339;28;20174;-88
2021/05/19 07:36:27;;;;;;;11.83;6.83;;;18.90;53.10;;;;;;4986431;28;20430;-89
2021/05/19 07:38:54;;;;;;;7.33;6.40;;;17.80;50.90;;;;;;4986480;28;20409;-90
2021/05/19 07:41:21;;;;;;;6.40;5.90;;;19.40;51.80;;;;;;4986657;28;20433;-89
2021/05/19 07:43:47;;;;;;;7.00;6.20;;;19.20;52.40;;;;;;4969984;28;20436;-89
2021/05/19 07:46:13;;;;;;;8.47;5.60;;;17.20;53.40;;;;;;4970262;28;20421;-89
2021/05/19 07:48:38;;;;;;;10.30;5.43;;;17.40;53.10;;;;;;4953409;28;20488;-88
2021/05/19 07:51:04;;;;;;;6.83;5.13;;;16.50;53.30;;;;;;4950886;29;20973;-89
2021/05/19 07:53:30;;;;;;;6.97;5.60;;;16.00;53.60;;;;;;4969653;28;20186;-88
2021/05/19 07:56:08;;;;;;;9.80;6.47;;;16.20;54.30;;;;;;4955896;29;20214;-89
2021/05/19 07:58:36;;;;;;;6.20;5.80;;;17.50;55.10;;;;;;4950235;28;20181;-87
2021/05/19 08:03:34;;;;;;;8.17;7.00;;;16.50;54.00;;;;;;4982465;28;20404;-89
2021/05/19 08:06:00;;;;;;;9.27;6.67;;;16.40;52.80;;;;;;4988434;28;20418;-89
2021/05/19 08:08:30;;;;;;;7.80;6.70;;;17.70;55.10;;;;;;4971662;28;20227;-88
2021/05/19 08:10:56;;;;;;;7.20;6.50;;;16.20;53.30;;;;;;4989427;28;20393;-88
2021/05/19 08:13:22;;;;;;;10.90;6.80;;;15.80;53.60;;;;;;4986602;28;20417;-88
2021/05/19 08:15:49;;;;;;;5.90;5.47;;;17.40;54.80;;;;;;4989750;28;20170;-87
2021/05/19 08:18:17;;;;;;;6.13;5.63;;;17.30;55.00;;;;;;4973997;28;20516;-87
2021/05/19 08:20:42;;;;;;;6.60;6.00;;;15.90;54.40;;;;;;4973398;28;20422;-89
2021/05/19 08:23:11;;;;;;;10.00;5.47;;;16.00;54.40;;;;;;4989336;28;20461;-90
2021/05/19 08:25:37;;;;;;;5.40;5.00;;;15.90;53.80;;;;;;4969742;28;20174;-89
2021/05/19 08:28:03;;;;;;;6.13;5.50;;;16.10;54.50;;;;;;4987790;28;20479;-89
2021/05/19 08:30:31;;;;;;;6.87;5.17;;;16.10;53.90;;;;;;4992804;28;20181;-89
2021/05/19 08:32:57;;;;;;;5.73;5.13;;;16.80;55.00;;;;;;4968244;28;20441;-89
2021/05/19 08:35:23;;;;;;;6.70;5.60;;;16.00;55.80;;;;;;4973934;28;20897;-89
2021/05/19 08:37:49;;;;;;;5.37;5.00;;;16.00;55.10;;;;;;4974456;28;20180;-90
2021/05/19 08:40:18;;;;;;;5.80;5.40;;;17.00;55.50;;;;;;4991845;28;20425;-90
2021/05/19 08:42:44;;;;;;;4.83;4.30;;;16.30;55.00;;;;;;4991968;28;20456;-89
2021/05/19 08:45:15;;;;;;;4.93;4.63;;;15.90;53.60;;;;;;4992677;28;20418;-89
2021/05/19 08:47:41;;;;;;;4.77;4.37;;;16.20;55.30;;;;;;4973916;28;20202;-88
2021/05/19 08:50:09;;;;;;;5.83;5.27;;;16.20;53.80;;;;;;4992456;28;20417;-89
2021/05/19 08:52:42;;;;;;;6.87;4.53;;;17.00;54.40;;;;;;4976211;28;20449;-89
2021/05/19 08:55:15;;;;;;;7.87;5.50;;;16.10;55.20;;;;;;4974583;28;20485;-87
2021/05/19 08:57:44;;;;;;;4.10;3.90;;;15.80;54.60;;;;;;4970491;28;20416;-89
2021/05/19 09:00:11;;;;;;;6.27;5.67;;;15.60;55.70;;;;;;4988941;28;20510;-88
2021/05/19 09:02:38;;;;;;;4.47;4.17;;;15.50;55.50;;;;;;4971315;28;20398;-89
2021/05/19 09:05:06;;;;;;;6.97;3.80;;;15.20;56.50;;;;;;4971810;28;20481;-89
2021/05/19 09:07:34;;;;;;;7.03;4.50;;;15.20;55.90;;;;;;4971010;28;20471;-85
2021/05/19 09:10:26;;;;;;;5.13;4.63;;;15.20;56.30;;;;;;4988369;28;20425;-89
2021/05/19 09:12:52;;;;;;;5.17;4.00;;;15.30;56.00;;;;;;4968888;28;20406;-87
2021/05/19 09:15:17;;;;;;;3.07;2.87;;;15.70;55.70;;;;;;4991023;28;20421;-84
2021/05/19 09:18:07;;;;;;;3.93;3.10;;;17.40;55.20;;;;;;4989467;28;20178;-89
2021/05/19 09:20:59;;;;;;;2.77;2.60;;;17.60;52.70;;;;;;4979485;28;20194;-89
2021/05/19 09:23:27;;;;;;;3.63;2.70;;;21.30;51.30;;;;;;4996670;28;20426;-90
2021/05/19 09:26:07;;;;;;;8.97;2.93;;;18.40;51.20;;;;;;4978584;28;20444;-90
2021/05/19 09:28:38;;;;;;;3.27;2.77;;;18.40;50.10;;;;;;4986140;28;20842;-88
2021/05/19 09:31:26;;;;;;;3.07;2.77;;;17.70;50.20;;;;;;4991823;28;20491;-87
2021/05/19 09:33:54;;;;;;;1.70;1.60;;;18.10;50.00;;;;;;4990062;28;20445;-89
2021/05/19 09:36:22;;;;;;;2.20;2.00;;;20.10;49.50;;;;;;4991557;28;20415;-88
2021/05/19 09:38:52;;;;;;;5.50;2.20;;;20.40;48.60;;;;;;4970924;28;20416;-88
2021/05/19 09:41:24;;;;;;;2.10;2.00;;;20.30;42.30;;;;;;4972965;28;20762;-89
2021/05/19 09:43:56;;;;;;;2.40;2.00;;;22.20;43.30;;;;;;4974247;28;20500;-89
2021/05/19 09:49:22;;;;;;;2.13;2.03;;;21.80;46.00;;;;;;4986203;28;20479;-90
2021/05/19 09:51:51;;;;;;;2.83;2.63;;;19.70;46.60;;;;;;4985699;28;20418;-88
2021/05/19 09:54:42;;;;;;;4.27;1.80;;;20.80;48.70;;;;;;4963814;28;20890;-89
2021/05/19 09:57:17;;;;;;;2.73;2.53;;;19.30;47.40;;;;;;4636515;28;10000372;-90
2021/05/19 09:59:44;;;;;;;8.37;2.20;;;20.00;44.90;;;;;;4963540;28;20173;-87
2021/05/19 10:02:15;;;;;;;2.33;2.10;;;18.90;46.00;;;;;;4964640;28;20432;-89
2021/05/19 10:04:46;;;;;;;2.37;2.27;;;18.70;46.60;;;;;;4981205;28;20410;-88
2021/05/19 10:07:16;;;;;;;3.17;2.17;;;19.40;46.10;;;;;;4975172;28;20425;-90
2021/05/19 10:09:41;;;;;;;1.73;1.67;;;21.10;47.00;;;;;;4964453;28;20812;-91
2021/05/19 10:12:09;;;;;;;2.60;2.00;;;21.50;45.10;;;;;;4981633;28;20409;-88
2021/05/19 10:14:36;;;;;;;2.10;2.00;;;21.40;42.90;;;;;;4979118;28;20177;-88
2021/05/19 10:17:10;;;;;;;2.73;1.60;;;22.80;43.10;;;;;;4960163;28;20418;-89
2021/05/19 10:19:58;;;;;;;2.77;1.87;;;21.60;41.90;;;;;;4979888;28;20417;-86
2021/05/19 10:22:25;;;;;;;1.93;1.90;;;21.20;41.40;;;;;;4979285;28;20437;-90
2021/05/19 10:25:03;;;;;;;3.50;2.23;;;21.20;42.30;;;;;;4983596;28;20494;-88
2021/05/19 10:27:57;;;;;;;5.30;3.93;;;20.50;42.50;;;;;;4965803;28;20451;-88
2021/05/19 10:30:38;;;;;;;3.60;2.70;;;19.60;43.20;;;;;;4963890;29;20438;-91
2021/05/19 10:33:06;;;;;;;3.20;1.67;;;19.70;44.50;;;;;;4966760;29;20473;-88
2021/05/19 10:35:35;;;;;;;3.83;2.43;;;20.90;42.90;;;;;;4967000;29;21195;-89
2021/05/19 10:38:17;;;;;;;3.73;2.80;;;20.90;42.70;;;;;;4964306;28;20457;-89
2021/05/19 10:41:07;;;;;;;2.93;2.00;;;21.10;43.70;;;;;;4967386;29;20461;-91
2021/05/19 10:43:47;;;;;;;1.83;1.83;;;20.60;43.00;;;;;;4966518;29;20525;-88
2021/05/19 10:46:16;;;;;;;2.27;2.07;;;21.00;43.20;;;;;;4965216;28;20418;-87
2021/05/19 10:48:52;;;;;;;2.97;2.10;;;20.50;43.00;;;;;;4964175;28;20497;-88
2021/05/19 10:52:01;;;;;;;5.37;1.93;;;19.90;44.40;;;;;;4963645;29;20418;-89
2021/05/19 10:57:38;;;;;;;4.07;2.23;;;18.10;46.50;;;;;;4971126;29;20458;-88
2021/05/19 11:00:24;;;;;;;3.07;2.30;;;17.60;47.80;;;;;;4972300;28;20426;-89
2021/05/19 11:02:54;;;;;;;3.50;2.30;;;17.60;48.30;;;;;;4972969;28;20481;-85
2021/05/19 11:05:25;;;;;;;1.90;1.80;;;18.10;46.70;;;;;;4971975;29;20490;-87
2021/05/19 11:08:37;;;;;;;1.57;1.50;;;18.40;46.50;;;;;;4973863;28;20474;-89
2021/05/19 11:11:26;;;;;;;3.13;1.87;;;20.40;43.20;;;;;;4910341;29;20421;-88
2021/05/19 11:14:27;;;;;;;2.00;1.50;;;22.40;42.40;;;;;;4967722;29;20418;-90
2021/05/19 11:17:14;;;;;;;2.57;2.37;;;24.00;42.60;;;;;;4965705;29;20429;-90
2021/05/19 11:19:44;;;;;;;1.73;1.63;;;22.00;41.10;;;;;;4970780;28;20425;-90
2021/05/19 11:22:15;;;;;;;3.30;2.60;;;21.70;39.80;;;;;;4969348;28;20403;-89
2021/05/19 11:24:55;;;;;;;4.90;2.80;;;20.30;41.90;;;;;;4968897;29;20478;-90
2021/05/19 11:27:29;;;;;;;2.73;2.43;;;18.80;43.20;;;;;;4969169;28;20462;-88
2021/05/19 11:29:56;;;;;;;1.87;1.87;;;18.70;45.20;;;;;;4971718;28;20484;-90
2021/05/19 11:32:25;;;;;;;3.53;2.43;;;18.70;45.40;;;;;;4973306;28;20760;-89
2021/05/19 11:35:14;;;;;;;4.80;2.30;;;18.30;45.90;;;;;;4988526;28;20453;-87
2021/05/19 11:38:35;;;;;;;2.40;2.37;;;18.90;45.60;;;;;;4990146;28;20385;-88
2021/05/19 11:41:20;;;;;;;2.23;2.00;;;20.90;43.80;;;;;;4991800;28;20410;-88
2021/05/19 11:43:46;;;;;;;2.37;2.27;;;23.20;40.50;;;;;;4988341;28;20437;-89
2021/05/19 11:46:19;;;;;;;2.33;1.77;;;23.30;40.80;;;;;;4972128;28;20613;-89
2021/05/19 11:49:13;;;;;;;2.43;1.70;;;24.00;37.70;;;;;;4972532;28;20246;-89
2021/05/19 11:51:48;;;;;;;1.50;1.50;;;25.70;36.90;;;;;;4976566;28;20456;-88
2021/05/19 11:54:22;;;;;;;6.57;3.50;;;24.50;34.70;;;;;;4992954;28;20385;-89
2021/05/19 11:59:49;;;;;;;4.37;2.30;;;22.40;37.60;;;;;;4954330;23;2702806;-90
2021/05/19 12:02:20;;;;;;;1.87;1.80;;;22.90;39.70;;;;;;4978374;28;20173;-87
2021/05/19 12:04:56;;;;;;;2.90;2.70;;;21.00;40.60;;;;;;4995667;28;20440;-89
2021/05/19 12:07:54;;;;;;;2.30;2.20;;;20.10;41.00;;;;;;4997926;28;20432;-89
2021/05/19 12:10:27;;;;;;;3.20;2.07;;;18.30;42.80;;;;;;4997682;28;20500;-88
2021/05/19 12:12:57;;;;;;;3.17;2.60;;;18.10;47.10;;;;;;4978257;28;20421;-87
2021/05/19 12:15:23;;;;;;;3.60;2.40;;;17.40;50.60;;;;;;4978295;28;20430;-87
2021/05/19 12:17:58;;;;;;;6.23;3.07;;;17.10;54.80;;;;;;4974926;28;20444;-88
2021/05/19 12:20:25;;;;;;;6.70;4.30;;;15.50;55.40;;;;;;4969186;28;20472;-88
2021/05/19 12:22:54;;;;;;;5.73;3.40;;;17.90;59.30;;;;;;4965958;28;20441;-89
2021/05/19 12:25:20;;;;;;;3.57;3.20;;;16.30;59.10;;;;;;4968104;28;20426;-90
2021/05/19 12:28:00;;;;;;;3.23;2.50;;;17.10;61.30;;;;;;4970497;28;20453;-88
2021/05/19 12:30:26;;;;;;;3.20;2.27;;;18.30;58.10;;;;;;4972007;28;20433;-88
2021/05/19 12:33:08;;;;;;;4.87;4.23;;;19.30;57.10;;;;;;4645517;28;9999620;-86
2021/05/19 12:35:44;;;;;;;2.50;2.30;;;20.10;52.90;;;;;;4972469;28;20660;-89
2021/05/19 12:38:16;;;;;;;2.53;2.03;;;20.20;49.70;;;;;;4974288;28;20420;-91
2021/05/19 12:40:47;;;;;;;2.20;2.20;;;19.30;47.60;;;;;;4988994;28;20416;-88
2021/05/19 12:43:29;;;;;;;2.40;1.40;;;21.90;49.70;;;;;;4959075;28;20966;-89
2021/05/19 12:46:11;;;;;;;1.43;1.33;;;20.50;47.50;;;;;;4959388;28;20484;-87
2021/05/19 12:48:39;;;;;;;1.50;1.50;;;20.70;47.90;;;;;;4974053;28;20491;-90
2021/05/19 12:51:13;;;;;;;1.70;1.43;;;20.70;45.90;;;;;;4971790;28;20508;-87
2021/05/19 12:53:45;;;;;;;1.80;1.43;;;20.60;45.00;;;;;;4972368;28;20452;-87
2021/05/19 12:56:15;;;;;;;1.60;1.50;;;19.40;44.90;;;;;;4973019;28;20170;-89
2021/05/19 12:59:18;;;;;;;1.10;1.10;;;20.50;45.90;;;;;;4971964;29;20466;-88
2021/05/19 13:02:06;;;;;;;1.23;1.23;;;22.80;42.50;;;;;;4963103;28;20426;-89
2021/05/19 13:05:09;;;;;;;1.70;1.17;;;24.40;40.10;;;;;;4972723;28;20414;-91